Detall de PIREP

Printer-friendly versionPDF version

[2012/12/29 18:40:00]
Flight IATA:CT1004
Pilot Number:012
Company ICAO:CAT
Aircraft Type:MD11/E
PAX:0
Aircraft Registration:CARGO
Departing Airport: EDDF
Destination Airport: LEBL
Alternate Airport:LEPA
Online: VATSIM
Route:ANEKI Y163 HERBI Y164 OLBEN UN869 MILPA UN852 DIVKO UN975 BISBA
Flight Level:F390
No Slew and time accel
No pause
Crash detect
Detect pilot in Cockpit between each 30 and 45 minutes
18:40 Zero fuel Weight: 351754 Lbs, Fuel Weight: 53701 Lbs
18:40 VATSIM:EDDF 291820Z 00000KT CAVOK 08/04 Q1013 NOSIG
18:40 VATSIM:LEBL 291830Z 23014KT 9999 FEW025 12/10 Q1020 NOSIG
18:41 VOICE CATALONIAN / X-MAS CHARTER
18:41 Parking Brakes off
18:43 Take-off
18:43 Take off Weight: 404734 Lbs
18:43 Wind: 000º @ 000 Knots Heading: 249º
18:43 POS N50º 02´ 26´´ E008º 34´ 07´´
18:43 Gear Up: 182 Knots
18:43 Flaps:3 at 183 Knots
18:44 Flaps:2 at 210 Knots
18:44 Flaps:3 at 211 Knots
18:44 Flaps:1 at 211 Knots
18:45 Flaps:0 at 213 Knots
18:57 TOC
18:57 Fuel Weight: 44422 Lb
18:58 Wind:214º@049 Knots Heading: 187º Ground Speed: 425 Knots Altitude 38986 ft
19:13 Wind:210º@035 Knots Heading: 229º Ground Speed: 433 Knots Altitude 39127 ft
19:28 Wind:206º@037 Knots Heading: 178º Ground Speed: 435 Knots Altitude 39169 ft
19:43 Wind:211º@040 Knots Heading: 202º Ground Speed: 426 Knots Altitude 39255 ft
19:55 TOD
19:55 Fuel Weight: 31810 Lb
19:58 Wind:209º@058 Knots Heading: 219º Ground Speed: 405 Knots Altitude 32342 ft
20:13 Wind:278º@020 Knots Heading: 237º Ground Speed: 264 Knots Altitude 8293 ft
20:17 Flaps:1 at 228 Knots
20:17 Flaps:2 at 228 Knots
20:17 Flaps:3 at 228 Knots
20:18 Flaps:4 at 171 Knots
20:18 Flaps:3 at 171 Knots
20:18 Flaps:4 at 171 Knots
20:18 Flaps:5 at 170 Knots
20:18 Flaps:6 at 169 Knots
20:19 Flaps:7 at150 Knots
20:19 Gear Down: 150 Knots
20:22 TouchDown:Rate -352 ft/min Speed: 150 Knots
20:22 VATSIM:LEBL 292000Z 27004KT 240V310 9999 FEW025 12/10 Q1021 NOSIG
20:22 Land
20:22 Wind:301º@006 Knots
20:22 Heading: 245º
20:22 Flight Duration: 01:39
20:22 Landing Weight: 379482 Lbs
20:22 POS N41º 17´ 54´´ E002º 04´ 56´´
20:25 Parking brakes on
20:25 Block to Block Duration: 01:44
20:25 Final Fuel: 27489 Lbls
20:25 Spent Fuel: 26212 Lbls
20:25 Flight Length: 641 NM
20:25 TOD Land Length: 134 NM

Exportar CSV

Powered by Drupal - Modified by Danger4k